sensor_id;sensor_type;location;lat;lon;timestamp;pressure;altitude;pressure_sealevel;temperature;humidity
1472;BME280;963;42.644;23.336;2022-07-05T00:02:20;94323.38;;;22.35;45.86
1472;BME280;963;42.644;23.336;2022-07-05T00:04:46;94299.47;;;22.40;46.00
1472;BME280;963;42.644;23.336;2022-07-05T00:07:11;94296.31;;;22.17;45.54
1472;BME280;963;42.644;23.336;2022-07-05T00:09:44;94316.59;;;22.18;45.08
1472;BME280;963;42.644;23.336;2022-07-05T00:12:10;94315.72;;;22.21;44.75
1472;BME280;963;42.644;23.336;2022-07-05T00:14:37;94325.69;;;22.20;45.18
1472;BME280;963;42.644;23.336;2022-07-05T00:17:04;94301.47;;;22.24;45.25
1472;BME280;963;42.644;23.336;2022-07-05T00:19:29;94312.84;;;22.28;45.41
1472;BME280;963;42.644;23.336;2022-07-05T00:21:55;94312.75;;;22.44;45.25
1472;BME280;963;42.644;23.336;2022-07-05T00:24:20;94298.63;;;22.31;46.00
1472;BME280;963;42.644;23.336;2022-07-05T00:26:46;94291.97;;;22.48;45.36
1472;BME280;963;42.644;23.336;2022-07-05T00:29:11;94299.81;;;22.68;45.32
1472;BME280;963;42.644;23.336;2022-07-05T00:31:37;94305.03;;;22.59;45.46
1472;BME280;963;42.644;23.336;2022-07-05T00:34:02;94306.88;;;22.74;45.40
1472;BME280;963;42.644;23.336;2022-07-05T00:36:28;94293.34;;;22.78;45.30
1472;BME280;963;42.644;23.336;2022-07-05T00:38:53;94309.66;;;22.71;45.47
1472;BME280;963;42.644;23.336;2022-07-05T00:41:19;94294.44;;;22.81;45.20
1472;BME280;963;42.644;23.336;2022-07-05T00:43:59;94297.13;;;22.81;44.42
1472;BME280;963;42.644;23.336;2022-07-05T00:46:26;94293.91;;;22.86;44.24
1472;BME280;963;42.644;23.336;2022-07-05T00:48:52;94303.34;;;22.90;44.59
1472;BME280;963;42.644;23.336;2022-07-05T00:51:18;94299.34;;;22.95;44.41
1472;BME280;963;42.644;23.336;2022-07-05T00:53:44;94293.56;;;22.96;44.67
1472;BME280;963;42.644;23.336;2022-07-05T00:56:11;94287.56;;;22.92;44.77
1472;BME280;963;42.644;23.336;2022-07-05T00:58:36;94285.94;;;22.95;44.43
1472;BME280;963;42.644;23.336;2022-07-05T01:01:03;94283.69;;;22.93;45.39
1472;BME280;963;42.644;23.336;2022-07-05T01:03:29;94286.50;;;22.90;46.34
1472;BME280;963;42.644;23.336;2022-07-05T01:05:55;94289.91;;;22.77;49.25
1472;BME280;963;42.644;23.336;2022-07-05T01:08:22;94292.41;;;22.85;51.20
1472;BME280;963;42.644;23.336;2022-07-05T01:10:49;94304.41;;;22.42;53.06
1472;BME280;963;42.644;23.336;2022-07-05T01:13:16;94299.88;;;22.64;51.83
1472;BME280;963;42.644;23.336;2022-07-05T01:15:42;94313.63;;;22.41;52.42
1472;BME280;963;42.644;23.336;2022-07-05T01:18:08;94313.50;;;22.57;52.02
1472;BME280;963;42.644;23.336;2022-07-05T01:20:34;94313.84;;;22.59;51.99
1472;BME280;963;42.644;23.336;2022-07-05T01:23:01;94331.00;;;22.62;51.45
1472;BME280;963;42.644;23.336;2022-07-05T01:25:29;94324.44;;;22.63;50.95
1472;BME280;963;42.644;23.336;2022-07-05T01:27:56;94320.28;;;22.49;51.75
1472;BME280;963;42.644;23.336;2022-07-05T01:30:22;94324.88;;;22.61;52.04
1472;BME280;963;42.644;23.336;2022-07-05T01:32:48;94334.63;;;22.55;52.17
1472;BME280;963;42.644;23.336;2022-07-05T01:35:15;94332.28;;;22.57;52.13
1472;BME280;963;42.644;23.336;2022-07-05T01:37:49;94325.22;;;22.51;52.05
1472;BME280;963;42.644;23.336;2022-07-05T01:40:14;94325.75;;;22.45;52.89
1472;BME280;963;42.644;23.336;2022-07-05T01:42:40;94324.56;;;22.34;51.98
1472;BME280;963;42.644;23.336;2022-07-05T01:45:06;94323.50;;;22.44;51.72
1472;BME280;963;42.644;23.336;2022-07-05T01:47:34;94314.28;;;22.45;52.22
1472;BME280;963;42.644;23.336;2022-07-05T01:50:02;94321.63;;;22.28;52.58
1472;BME280;963;42.644;23.336;2022-07-05T01:52:31;94315.22;;;22.38;51.75
1472;BME280;963;42.644;23.336;2022-07-05T01:55:00;94317.38;;;22.43;52.37
1472;BME280;963;42.644;23.336;2022-07-05T01:57:27;94314.28;;;22.45;52.06
1472;BME280;963;42.644;23.336;2022-07-05T01:59:52;94315.88;;;22.42;53.00
1472;BME280;963;42.644;23.336;2022-07-05T02:02:18;94318.13;;;22.44;52.46
1472;BME280;963;42.644;23.336;2022-07-05T02:04:43;94299.03;;;22.42;52.58
1472;BME280;963;42.644;23.336;2022-07-05T02:07:09;94311.91;;;22.47;52.33
1472;BME280;963;42.644;23.336;2022-07-05T02:09:35;94301.41;;;22.40;52.29
1472;BME280;963;42.644;23.336;2022-07-05T02:12:02;94313.53;;;22.44;52.26
1472;BME280;963;42.644;23.336;2022-07-05T02:14:28;94303.88;;;22.47;52.24
1472;BME280;963;42.644;23.336;2022-07-05T02:16:54;94303.75;;;22.51;52.78
1472;BME280;963;42.644;23.336;2022-07-05T02:19:19;94314.81;;;22.53;53.49
1472;BME280;963;42.644;23.336;2022-07-05T02:21:45;94303.31;;;22.52;52.81
1472;BME280;963;42.644;23.336;2022-07-05T02:24:10;94307.94;;;22.52;52.95
1472;BME280;963;42.644;23.336;2022-07-05T02:26:35;94319.41;;;22.52;53.62
1472;BME280;963;42.644;23.336;2022-07-05T02:29:02;94315.88;;;22.55;53.70
1472;BME280;963;42.644;23.336;2022-07-05T02:31:28;94312.66;;;22.60;53.01
1472;BME280;963;42.644;23.336;2022-07-05T02:33:53;94314.47;;;22.63;53.02
1472;BME280;963;42.644;23.336;2022-07-05T02:36:19;94322.09;;;22.65;52.91
1472;BME280;963;42.644;23.336;2022-07-05T02:38:45;94323.19;;;22.67;52.96
1472;BME280;963;42.644;23.336;2022-07-05T02:41:11;94337.34;;;22.68;53.18
1472;BME280;963;42.644;23.336;2022-07-05T02:43:37;94324.69;;;22.68;53.04
1472;BME280;963;42.644;23.336;2022-07-05T02:46:04;94340.44;;;22.66;53.38
1472;BME280;963;42.644;23.336;2022-07-05T02:48:31;94339.47;;;22.60;53.77
1472;BME280;963;42.644;23.336;2022-07-05T02:50:57;94335.72;;;22.58;53.75
1472;BME280;963;42.644;23.336;2022-07-05T02:53:23;94343.75;;;22.58;53.72
1472;BME280;963;42.644;23.336;2022-07-05T02:55:49;94334.00;;;22.51;53.81
1472;BME280;963;42.644;23.336;2022-07-05T02:58:14;94337.44;;;22.52;54.08
1472;BME280;963;42.644;23.336;2022-07-05T03:00:42;94334.84;;;22.48;52.81
1472;BME280;963;42.644;23.336;2022-07-05T03:03:07;94334.31;;;22.40;53.75
1472;BME280;963;42.644;23.336;2022-07-05T03:05:33;94338.94;;;22.40;53.65
1472;BME280;963;42.644;23.336;2022-07-05T03:07:58;94345.56;;;22.35;54.02
1472;BME280;963;42.644;23.336;2022-07-05T03:10:24;94338.28;;;22.36;53.70
1472;BME280;963;42.644;23.336;2022-07-05T03:12:50;94355.13;;;22.36;54.41
1472;BME280;963;42.644;23.336;2022-07-05T03:15:16;94350.41;;;22.40;54.09
1472;BME280;963;42.644;23.336;2022-07-05T03:17:41;94343.00;;;22.44;53.65
1472;BME280;963;42.644;23.336;2022-07-05T03:20:07;94341.41;;;22.47;53.21
1472;BME280;963;42.644;23.336;2022-07-05T03:22:33;94330.41;;;22.16;54.39
1472;BME280;963;42.644;23.336;2022-07-05T03:24:58;94340.63;;;22.34;54.29
1472;BME280;963;42.644;23.336;2022-07-05T03:27:24;94340.97;;;22.36;54.17
1472;BME280;963;42.644;23.336;2022-07-05T03:29:49;94345.69;;;22.32;54.46
1472;BME280;963;42.644;23.336;2022-07-05T03:32:14;94344.28;;;22.40;53.77
1472;BME280;963;42.644;23.336;2022-07-05T03:34:40;94328.53;;;22.42;54.14
1472;BME280;963;42.644;23.336;2022-07-05T03:37:05;94346.44;;;22.45;53.95
1472;BME280;963;42.644;23.336;2022-07-05T03:39:31;94338.59;;;22.51;53.57
1472;BME280;963;42.644;23.336;2022-07-05T03:41:56;94325.31;;;22.47;53.27
1472;BME280;963;42.644;23.336;2022-07-05T03:44:22;94325.75;;;22.45;53.65
1472;BME280;963;42.644;23.336;2022-07-05T03:46:47;94326.28;;;22.53;53.39
1472;BME280;963;42.644;23.336;2022-07-05T03:49:13;94330.03;;;22.56;52.96
1472;BME280;963;42.644;23.336;2022-07-05T03:51:38;94318.00;;;22.60;52.84
1472;BME280;963;42.644;23.336;2022-07-05T03:54:04;94329.91;;;22.59;53.21
1472;BME280;963;42.644;23.336;2022-07-05T03:56:29;94314.59;;;22.60;53.33
1472;BME280;963;42.644;23.336;2022-07-05T03:58:55;94315.16;;;22.67;53.39
1472;BME280;963;42.644;23.336;2022-07-05T04:01:21;94313.09;;;22.71;53.17
1472;BME280;963;42.644;23.336;2022-07-05T04:03:47;94318.16;;;22.82;53.13
1472;BME280;963;42.644;23.336;2022-07-05T04:06:12;94318.34;;;22.88;52.59
1472;BME280;963;42.644;23.336;2022-07-05T04:08:38;94330.81;;;22.94;52.75
1472;BME280;963;42.644;23.336;2022-07-05T04:11:04;94313.41;;;22.99;52.77
1472;BME280;963;42.644;23.336;2022-07-05T04:13:30;94323.19;;;23.05;52.64
1472;BME280;963;42.644;23.336;2022-07-05T04:15:56;94310.94;;;23.04;52.35
1472;BME280;963;42.644;23.336;2022-07-05T04:18:22;94327.88;;;23.14;52.02
1472;BME280;963;42.644;23.336;2022-07-05T04:20:48;94318.66;;;23.15;52.35
1472;BME280;963;42.644;23.336;2022-07-05T04:23:13;94320.78;;;23.20;51.96
1472;BME280;963;42.644;23.336;2022-07-05T04:25:39;94322.91;;;23.25;52.39
1472;BME280;963;42.644;23.336;2022-07-05T04:28:05;94319.34;;;23.28;52.27
1472;BME280;963;42.644;23.336;2022-07-05T04:30:30;94320.84;;;23.29;52.36
1472;BME280;963;42.644;23.336;2022-07-05T04:32:56;94321.06;;;23.35;51.96
1472;BME280;963;42.644;23.336;2022-07-05T04:35:22;94325.25;;;23.36;52.12
1472;BME280;963;42.644;23.336;2022-07-05T04:37:48;94321.50;;;23.33;51.67
1472;BME280;963;42.644;23.336;2022-07-05T04:40:14;94325.47;;;23.29;51.91
1472;BME280;963;42.644;23.336;2022-07-05T04:42:40;94323.13;;;23.31;52.17
1472;BME280;963;42.644;23.336;2022-07-05T04:45:07;94318.38;;;23.35;51.76
1472;BME280;963;42.644;23.336;2022-07-05T04:47:32;94331.69;;;23.38;50.77
1472;BME280;963;42.644;23.336;2022-07-05T04:49:59;94323.41;;;23.46;50.85
1472;BME280;963;42.644;23.336;2022-07-05T04:52:25;94315.97;;;23.50;50.78
1472;BME280;963;42.644;23.336;2022-07-05T04:54:51;94314.03;;;23.50;49.77
1472;BME280;963;42.644;23.336;2022-07-05T04:57:17;94330.47;;;23.52;50.23
1472;BME280;963;42.644;23.336;2022-07-05T04:59:42;94327.69;;;23.56;49.65
1472;BME280;963;42.644;23.336;2022-07-05T05:02:08;94326.16;;;23.55;50.78
1472;BME280;963;42.644;23.336;2022-07-05T05:04:33;94327.69;;;23.56;50.87
1472;BME280;963;42.644;23.336;2022-07-05T05:06:59;94332.06;;;23.62;51.05
1472;BME280;963;42.644;23.336;2022-07-05T05:09:24;94333.44;;;23.67;50.05
1472;BME280;963;42.644;23.336;2022-07-05T05:11:50;94325.56;;;23.73;49.78
1472;BME280;963;42.644;23.336;2022-07-05T05:14:15;94329.09;;;23.82;49.35
1472;BME280;963;42.644;23.336;2022-07-05T05:16:41;94343.56;;;23.63;49.88
1472;BME280;963;42.644;23.336;2022-07-05T05:19:06;94332.31;;;23.77;49.67
1472;BME280;963;42.644;23.336;2022-07-05T05:21:32;94352.09;;;23.83;49.22
1472;BME280;963;42.644;23.336;2022-07-05T05:23:58;94346.47;;;23.90;48.90
1472;BME280;963;42.644;23.336;2022-07-05T05:26:23;94337.22;;;23.91;48.72
1472;BME280;963;42.644;23.336;2022-07-05T05:28:49;94330.09;;;23.97;48.66
1472;BME280;963;42.644;23.336;2022-07-05T05:31:14;94333.97;;;23.96;49.15
1472;BME280;963;42.644;23.336;2022-07-05T05:33:40;94312.72;;;23.89;48.50
1472;BME280;963;42.644;23.336;2022-07-05T05:36:06;94328.22;;;24.07;48.76
1472;BME280;963;42.644;23.336;2022-07-05T05:38:31;94332.78;;;24.19;48.43
1472;BME280;963;42.644;23.336;2022-07-05T05:40:57;94339.53;;;24.24;48.41
1472;BME280;963;42.644;23.336;2022-07-05T05:43:22;94327.59;;;24.25;47.63
1472;BME280;963;42.644;23.336;2022-07-05T05:45:48;94328.22;;;24.29;47.44
1472;BME280;963;42.644;23.336;2022-07-05T05:48:13;94325.88;;;24.40;47.74
1472;BME280;963;42.644;23.336;2022-07-05T05:50:39;94332.19;;;24.46;47.48
1472;BME280;963;42.644;23.336;2022-07-05T05:53:04;94335.94;;;24.49;47.21
1472;BME280;963;42.644;23.336;2022-07-05T05:55:31;94340.19;;;24.15;47.74
1472;BME280;963;42.644;23.336;2022-07-05T05:57:57;94323.94;;;24.41;48.12
1472;BME280;963;42.644;23.336;2022-07-05T06:00:35;94345.19;;;24.48;47.77
1472;BME280;963;42.644;23.336;2022-07-05T06:03:00;94333.41;;;24.01;49.73
1472;BME280;963;42.644;23.336;2022-07-05T06:05:26;94329.75;;;24.39;49.03
1472;BME280;963;42.644;23.336;2022-07-05T06:07:55;94344.44;;;24.47;48.29
1472;BME280;963;42.644;23.336;2022-07-05T06:10:27;94330.66;;;24.67;47.39
1472;BME280;963;42.644;23.336;2022-07-05T06:12:54;94334.72;;;24.81;47.71
1472;BME280;963;42.644;23.336;2022-07-05T06:15:21;94336.00;;;24.58;49.75
1472;BME280;963;42.644;23.336;2022-07-05T06:17:47;94347.84;;;24.70;49.43
1472;BME280;963;42.644;23.336;2022-07-05T06:20:24;94341.31;;;24.49;50.24
1472;BME280;963;42.644;23.336;2022-07-05T06:22:51;94345.97;;;24.88;48.86
1472;BME280;963;42.644;23.336;2022-07-05T06:25:17;94358.72;;;24.97;48.87
1472;BME280;963;42.644;23.336;2022-07-05T06:27:48;94344.84;;;24.99;48.38
1472;BME280;963;42.644;23.336;2022-07-05T06:30:16;94347.69;;;25.04;48.51
1472;BME280;963;42.644;23.336;2022-07-05T06:32:43;94356.09;;;25.15;47.95
1472;BME280;963;42.644;23.336;2022-07-05T06:35:09;94357.28;;;25.14;47.73
1472;BME280;963;42.644;23.336;2022-07-05T06:38:27;94362.94;;;24.98;48.79
1472;BME280;963;42.644;23.336;2022-07-05T06:40:30;94335.16;;;25.10;48.18
1472;BME280;963;42.644;23.336;2022-07-05T06:42:58;94368.97;;;25.11;48.17
1472;BME280;963;42.644;23.336;2022-07-05T06:45:25;94338.09;;;24.94;48.20
1472;BME280;963;42.644;23.336;2022-07-05T06:47:59;94351.59;;;25.03;48.58
1472;BME280;963;42.644;23.336;2022-07-05T06:50:26;94333.38;;;25.25;47.78
1472;BME280;963;42.644;23.336;2022-07-05T06:52:52;94341.16;;;25.23;47.17
1472;BME280;963;42.644;23.336;2022-07-05T06:55:18;94327.13;;;25.38;47.56
1472;BME280;963;42.644;23.336;2022-07-05T06:57:43;94330.81;;;25.22;48.42
1472;BME280;963;42.644;23.336;2022-07-05T07:00:13;94327.28;;;25.34;48.12
1472;BME280;963;42.644;23.336;2022-07-05T07:02:38;94330.38;;;25.14;49.02
1472;BME280;963;42.644;23.336;2022-07-05T07:05:04;94317.22;;;25.16;48.94
1472;BME280;963;42.644;23.336;2022-07-05T07:07:33;94318.41;;;25.24;49.72
1472;BME280;963;42.644;23.336;2022-07-05T07:10:18;94328.84;;;25.04;49.40
1472;BME280;963;42.644;23.336;2022-07-05T07:12:43;94323.19;;;25.11;49.52
1472;BME280;963;42.644;23.336;2022-07-05T07:15:09;94331.56;;;25.22;49.32
1472;BME280;963;42.644;23.336;2022-07-05T07:17:34;94330.72;;;25.53;48.56
1472;BME280;963;42.644;23.336;2022-07-05T07:20:00;94327.56;;;25.64;48.53
1472;BME280;963;42.644;23.336;2022-07-05T07:22:26;94323.28;;;25.75;48.81
1472;BME280;963;42.644;23.336;2022-07-05T07:24:51;94325.38;;;25.80;48.98
1472;BME280;963;42.644;23.336;2022-07-05T07:27:16;94330.78;;;25.71;48.90
1472;BME280;963;42.644;23.336;2022-07-05T07:29:42;94331.63;;;25.96;48.27
1472;BME280;963;42.644;23.336;2022-07-05T07:32:08;94335.69;;;26.09;47.49
1472;BME280;963;42.644;23.336;2022-07-05T07:34:35;94328.03;;;26.17;47.55
1472;BME280;963;42.644;23.336;2022-07-05T07:37:02;94327.75;;;25.97;48.21
1472;BME280;963;42.644;23.336;2022-07-05T07:39:28;94307.69;;;25.89;48.40
1472;BME280;963;42.644;23.336;2022-07-05T07:41:53;94323.09;;;25.97;48.86
1472;BME280;963;42.644;23.336;2022-07-05T07:44:19;94329.22;;;26.16;48.46
1472;BME280;963;42.644;23.336;2022-07-05T07:46:45;94326.50;;;26.25;48.11
1472;BME280;963;42.644;23.336;2022-07-05T07:49:11;94322.44;;;26.39;47.74
1472;BME280;963;42.644;23.336;2022-07-05T07:51:38;94313.19;;;26.40;47.42
1472;BME280;963;42.644;23.336;2022-07-05T07:54:03;94321.69;;;26.47;47.86
1472;BME280;963;42.644;23.336;2022-07-05T07:56:29;94318.97;;;26.57;47.54
1472;BME280;963;42.644;23.336;2022-07-05T07:58:54;94315.38;;;26.51;47.20
1472;BME280;963;42.644;23.336;2022-07-05T08:01:20;94317.81;;;26.30;48.32
1472;BME280;963;42.644;23.336;2022-07-05T08:03:46;94321.69;;;26.47;48.50
1472;BME280;963;42.644;23.336;2022-07-05T08:06:11;94320.53;;;26.72;47.08
1472;BME280;963;42.644;23.336;2022-07-05T08:08:38;94311.03;;;26.86;46.43
1472;BME280;963;42.644;23.336;2022-07-05T08:11:05;94326.88;;;27.02;46.71
1472;BME280;963;42.644;23.336;2022-07-05T08:13:30;94328.84;;;26.93;46.41
1472;BME280;963;42.644;23.336;2022-07-05T08:15:56;94336.88;;;26.78;47.26
1472;BME280;963;42.644;23.336;2022-07-05T08:18:22;94315.34;;;27.02;46.35
1472;BME280;963;42.644;23.336;2022-07-05T08:21:06;94311.38;;;27.12;46.83
1472;BME280;963;42.644;23.336;2022-07-05T08:23:50;94313.66;;;27.04;46.42
1472;BME280;963;42.644;23.336;2022-07-05T08:26:15;94311.44;;;26.94;46.38
1472;BME280;963;42.644;23.336;2022-07-05T08:28:41;94310.94;;;27.14;45.95
1472;BME280;963;42.644;23.336;2022-07-05T08:31:06;94310.25;;;27.28;45.87
1472;BME280;963;42.644;23.336;2022-07-05T08:33:32;94317.91;;;27.44;46.11
1472;BME280;963;42.644;23.336;2022-07-05T08:35:57;94293.88;;;27.46;45.73
1472;BME280;963;42.644;23.336;2022-07-05T08:38:22;94308.91;;;27.71;45.01
1472;BME280;963;42.644;23.336;2022-07-05T08:40:50;94296.31;;;27.83;44.78
1472;BME280;963;42.644;23.336;2022-07-05T08:43:17;94307.63;;;27.96;44.27
1472;BME280;963;42.644;23.336;2022-07-05T08:45:44;94296.72;;;28.05;43.68
1472;BME280;963;42.644;23.336;2022-07-05T08:48:10;94301.19;;;28.08;43.65
1472;BME280;963;42.644;23.336;2022-07-05T08:50:40;94299.63;;;28.16;43.42
1472;BME280;963;42.644;23.336;2022-07-05T08:53:05;94290.38;;;28.23;43.12
1472;BME280;963;42.644;23.336;2022-07-05T08:55:32;94292.00;;;28.29;43.29
1472;BME280;963;42.644;23.336;2022-07-05T08:57:58;94287.78;;;28.43;43.47
1472;BME280;963;42.644;23.336;2022-07-05T09:00:25;94289.03;;;28.27;43.01
1472;BME280;963;42.644;23.336;2022-07-05T09:02:50;94278.72;;;28.46;42.97
1472;BME280;963;42.644;23.336;2022-07-05T09:05:18;94285.06;;;28.58;42.40
1472;BME280;963;42.644;23.336;2022-07-05T09:08:12;94280.75;;;28.66;42.35
1472;BME280;963;42.644;23.336;2022-07-05T09:10:39;94274.81;;;28.82;42.06
1472;BME280;963;42.644;23.336;2022-07-05T09:13:07;94281.38;;;28.90;42.37
1472;BME280;963;42.644;23.336;2022-07-05T09:15:33;94274.09;;;28.82;42.20
1472;BME280;963;42.644;23.336;2022-07-05T09:17:58;94275.28;;;28.95;42.41
1472;BME280;963;42.644;23.336;2022-07-05T09:20:26;94257.53;;;28.94;42.80
1472;BME280;963;42.644;23.336;2022-07-05T09:22:54;94246.97;;;28.97;42.56
1472;BME280;963;42.644;23.336;2022-07-05T09:25:21;94268.63;;;28.97;42.49
1472;BME280;963;42.644;23.336;2022-07-05T09:30:41;94256.31;;;28.95;42.28
1472;BME280;963;42.644;23.336;2022-07-05T09:33:12;94264.06;;;29.03;41.43
1472;BME280;963;42.644;23.336;2022-07-05T09:35:42;94236.94;;;29.23;41.26
1472;BME280;963;42.644;23.336;2022-07-05T09:38:18;94245.94;;;29.35;41.26
1472;BME280;963;42.644;23.336;2022-07-05T09:40:49;94246.44;;;29.53;41.47
1472;BME280;963;42.644;23.336;2022-07-05T09:43:17;94241.34;;;29.61;40.70
1472;BME280;963;42.644;23.336;2022-07-05T09:45:59;94234.00;;;29.67;40.55
1472;BME280;963;42.644;23.336;2022-07-05T09:48:26;94240.03;;;29.77;40.70
1472;BME280;963;42.644;23.336;2022-07-05T09:50:51;94231.91;;;29.77;40.48
1472;BME280;963;42.644;23.336;2022-07-05T09:53:18;94221.16;;;29.88;41.00
1472;BME280;963;42.644;23.336;2022-07-05T09:56:01;94222.38;;;29.87;41.45
1472;BME280;963;42.644;23.336;2022-07-05T09:58:27;94222.16;;;29.91;40.82
1472;BME280;963;42.644;23.336;2022-07-05T10:00:53;94227.53;;;30.11;41.32
1472;BME280;963;42.644;23.336;2022-07-05T10:03:18;94233.06;;;29.96;41.15
1472;BME280;963;42.644;23.336;2022-07-05T10:05:43;94216.22;;;30.12;41.32
1472;BME280;963;42.644;23.336;2022-07-05T10:08:10;94223.81;;;30.08;41.12
1472;BME280;963;42.644;23.336;2022-07-05T10:10:38;94210.94;;;29.77;41.99
1472;BME280;963;42.644;23.336;2022-07-05T10:13:03;94209.56;;;29.87;42.21
1472;BME280;963;42.644;23.336;2022-07-05T10:15:33;94218.91;;;30.12;41.87
1472;BME280;963;42.644;23.336;2022-07-05T10:18:03;94205.38;;;30.18;41.81
1472;BME280;963;42.644;23.336;2022-07-05T10:23:14;94206.91;;;30.25;42.21
1472;BME280;963;42.644;23.336;2022-07-05T10:25:41;94203.28;;;30.33;41.91
1472;BME280;963;42.644;23.336;2022-07-05T10:28:08;94197.88;;;30.39;41.00
1472;BME280;963;42.644;23.336;2022-07-05T10:30:34;94190.22;;;30.37;42.05
1472;BME280;963;42.644;23.336;2022-07-05T10:33:01;94190.16;;;30.63;41.56
1472;BME280;963;42.644;23.336;2022-07-05T10:35:28;94194.09;;;30.62;40.96
1472;BME280;963;42.644;23.336;2022-07-05T10:37:54;94177.59;;;30.71;40.67
1472;BME280;963;42.644;23.336;2022-07-05T10:40:20;94186.50;;;30.72;40.52
1472;BME280;963;42.644;23.336;2022-07-05T10:45:35;94177.94;;;30.90;40.04
1472;BME280;963;42.644;23.336;2022-07-05T10:50:55;94182.31;;;30.76;39.62
1472;BME280;963;42.644;23.336;2022-07-05T10:55:58;94181.66;;;30.87;40.78
1472;BME280;963;42.644;23.336;2022-07-05T10:58:37;94169.88;;;31.13;39.55
1472;BME280;963;42.644;23.336;2022-07-05T11:03:39;94175.66;;;31.31;40.15
1472;BME280;963;42.644;23.336;2022-07-05T11:06:06;94158.59;;;31.36;38.62
1472;BME280;963;42.644;23.336;2022-07-05T11:11:32;94155.88;;;31.42;38.03
1472;BME280;963;42.644;23.336;2022-07-05T11:14:00;94146.00;;;31.33;37.63
1472;BME280;963;42.644;23.336;2022-07-05T11:16:28;94158.88;;;31.50;38.75
1472;BME280;963;42.644;23.336;2022-07-05T11:19:11;94158.63;;;31.53;38.41
1472;BME280;963;42.644;23.336;2022-07-05T11:21:39;94150.94;;;31.35;39.16
1472;BME280;963;42.644;23.336;2022-07-05T11:24:26;94147.53;;;31.68;38.34
1472;BME280;963;42.644;23.336;2022-07-05T11:26:57;94156.69;;;31.76;37.98
1472;BME280;963;42.644;23.336;2022-07-05T11:32:09;94150.50;;;31.92;37.26
1472;BME280;963;42.644;23.336;2022-07-05T11:34:36;94146.53;;;31.93;37.66
1472;BME280;963;42.644;23.336;2022-07-05T11:37:28;94149.50;;;32.18;36.88
1472;BME280;963;42.644;23.336;2022-07-05T11:42:36;94139.34;;;32.24;35.35
1472;BME280;963;42.644;23.336;2022-07-05T11:45:09;94136.13;;;32.31;34.91
1472;BME280;963;42.644;23.336;2022-07-05T11:47:35;94150.75;;;31.94;35.93
1472;BME280;963;42.644;23.336;2022-07-05T11:50:01;94139.63;;;31.92;36.01
1472;BME280;963;42.644;23.336;2022-07-05T11:52:28;94118.31;;;32.19;36.54
1472;BME280;963;42.644;23.336;2022-07-05T11:54:54;94138.13;;;32.19;36.26
1472;BME280;963;42.644;23.336;2022-07-05T11:57:20;94124.03;;;32.26;36.08
1472;BME280;963;42.644;23.336;2022-07-05T11:59:46;94115.81;;;32.49;35.69
1472;BME280;963;42.644;23.336;2022-07-05T12:02:12;94113.84;;;32.44;35.92
1472;BME280;963;42.644;23.336;2022-07-05T12:04:37;94122.28;;;32.40;36.50
1472;BME280;963;42.644;23.336;2022-07-05T12:07:03;94109.91;;;32.39;36.18
1472;BME280;963;42.644;23.336;2022-07-05T12:09:31;94108.13;;;32.47;35.31
1472;BME280;963;42.644;23.336;2022-07-05T12:12:24;94112.13;;;32.41;35.93
1472;BME280;963;42.644;23.336;2022-07-05T12:15:18;94108.56;;;32.62;35.42
1472;BME280;963;42.644;23.336;2022-07-05T12:17:46;94103.69;;;32.50;35.37
1472;BME280;963;42.644;23.336;2022-07-05T12:20:14;94100.94;;;32.55;35.23
1472;BME280;963;42.644;23.336;2022-07-05T12:22:44;94098.13;;;32.78;35.19
1472;BME280;963;42.644;23.336;2022-07-05T12:25:20;94096.28;;;33.08;34.65
1472;BME280;963;42.644;23.336;2022-07-05T12:27:47;94084.88;;;33.04;35.30
1472;BME280;963;42.644;23.336;2022-07-05T12:30:16;94106.84;;;32.59;35.00
1472;BME280;963;42.644;23.336;2022-07-05T12:32:56;94083.00;;;32.88;35.20
1472;BME280;963;42.644;23.336;2022-07-05T12:38:16;94083.63;;;33.11;35.34
1472;BME280;963;42.644;23.336;2022-07-05T12:40:45;94077.56;;;33.23;34.89
1472;BME280;963;42.644;23.336;2022-07-05T12:43:16;94088.66;;;33.37;35.10
1472;BME280;963;42.644;23.336;2022-07-05T12:45:57;94071.28;;;33.40;34.65
1472;BME280;963;42.644;23.336;2022-07-05T12:48:36;94090.44;;;33.64;34.43
1472;BME280;963;42.644;23.336;2022-07-05T12:51:03;94069.69;;;33.55;34.30
1472;BME280;963;42.644;23.336;2022-07-05T12:53:29;94062.59;;;33.00;34.77
1472;BME280;963;42.644;23.336;2022-07-05T12:56:14;94065.97;;;33.17;35.19
1472;BME280;963;42.644;23.336;2022-07-05T12:59:04;94066.53;;;33.10;34.89
1472;BME280;963;42.644;23.336;2022-07-05T13:01:33;94054.66;;;33.02;35.80
1472;BME280;963;42.644;23.336;2022-07-05T13:12:22;94052.34;;;33.53;35.32
1472;BME280;963;42.644;23.336;2022-07-05T13:14:49;94045.94;;;33.45;34.73
1472;BME280;963;42.644;23.336;2022-07-05T13:17:17;94043.31;;;33.34;35.26
1472;BME280;963;42.644;23.336;2022-07-05T13:19:45;94048.38;;;33.54;35.20
1472;BME280;963;42.644;23.336;2022-07-05T13:22:11;94043.28;;;33.69;35.18
1472;BME280;963;42.644;23.336;2022-07-05T13:24:37;94038.66;;;33.89;34.49
1472;BME280;963;42.644;23.336;2022-07-05T13:27:04;94034.84;;;33.67;35.04
1472;BME280;963;42.644;23.336;2022-07-05T13:29:29;94030.19;;;33.62;35.28
1472;BME280;963;42.644;23.336;2022-07-05T13:31:55;94041.34;;;33.64;34.49
1472;BME280;963;42.644;23.336;2022-07-05T13:34:21;94032.66;;;33.66;35.06
1472;BME280;963;42.644;23.336;2022-07-05T13:36:53;94037.66;;;33.62;35.69
1472;BME280;963;42.644;23.336;2022-07-05T13:39:19;94037.00;;;33.50;35.21
1472;BME280;963;42.644;23.336;2022-07-05T13:41:49;94042.91;;;33.54;35.24
1472;BME280;963;42.644;23.336;2022-07-05T13:44:15;94032.47;;;33.22;35.67
1472;BME280;963;42.644;23.336;2022-07-05T13:46:40;94024.84;;;33.15;36.16
1472;BME280;963;42.644;23.336;2022-07-05T13:49:06;94025.78;;;32.82;37.23
1472;BME280;963;42.644;23.336;2022-07-05T13:51:31;94042.94;;;33.13;36.24
1472;BME280;963;42.644;23.336;2022-07-05T13:53:56;94041.84;;;33.27;36.60
1472;BME280;963;42.644;23.336;2022-07-05T13:56:22;94029.97;;;33.24;36.82
1472;BME280;963;42.644;23.336;2022-07-05T13:58:48;94005.25;;;33.17;37.01
1472;BME280;963;42.644;23.336;2022-07-05T14:01:14;94028.03;;;33.19;37.00